Time;durP1;ratioP1;P1;durP2;ratioP2;P2;SDS_P1;SDS_P2;PMS_P1;PMS_P2;Temp;Humidity;BMP_temperature;BMP_pressure;BME280_temperature;BME280_humidity;BME280_pressure;Samples;Min_cycle;Max_cycle;Signal;HPM_P1;HPM_P2
2021/01/15 00:00:23;;;;;;;9.90;2.67;;;0.20;99.90;;;;;;6746488;88;20656;-77
2021/01/15 00:10:23;;;;;;;5.05;2.65;;;-0.10;99.90;;;;;;6738073;88;20196;-76
2021/01/15 00:20:24;;;;;;;4.60;2.10;;;0.00;99.90;;;;;;6742181;88;20246;-75
2021/01/15 00:30:25;;;;;;;4.70;2.40;;;0.00;99.90;;;;;;6741682;88;20199;-75
2021/01/15 00:40:25;;;;;;;4.40;2.22;;;-0.30;99.90;;;;;;6748013;88;20270;-74
2021/01/15 00:50:26;;;;;;;4.80;2.50;;;-0.50;99.90;;;;;;6744369;88;20203;-76
2021/01/15 01:00:26;;;;;;;4.65;2.37;;;-0.40;99.90;;;;;;6740039;88;20209;-76
2021/01/15 01:10:27;;;;;;;6.28;2.60;;;-0.60;99.90;;;;;;6735049;88;20647;-77
2021/01/15 01:20:28;;;;;;;8.77;2.45;;;-0.90;99.90;;;;;;6735752;88;20251;-77
2021/01/15 01:30:28;;;;;;;6.40;2.30;;;-0.90;99.90;;;;;;6726740;88;20278;-75
2021/01/15 01:40:29;;;;;;;5.30;2.28;;;-0.70;99.90;;;;;;6726308;88;20224;-74
2021/01/15 01:50:31;;;;;;;4.65;2.20;;;-0.70;99.90;;;;;;6726000;88;20189;-76
2021/01/15 02:00:35;;;;;;;5.05;2.30;;;-1.10;99.90;;;;;;6708637;88;20505;-76
2021/01/15 02:10:51;;;;;;;5.62;2.35;;;-1.20;99.90;;;;;;6713772;88;20186;-76
2021/01/15 02:21:26;;;;;;;4.80;2.50;;;-1.20;99.90;;;;;;6726734;88;20708;-75
2021/01/15 02:31:45;;;;;;;5.20;2.40;;;-1.10;99.90;;;;;;6725046;88;20190;-76
2021/01/15 02:41:46;;;;;;;5.87;2.47;;;-1.20;99.90;;;;;;6732324;88;20186;-76
2021/01/15 02:51:47;;;;;;;6.97;2.60;;;-1.10;99.90;;;;;;6733604;88;20605;-76
2021/01/15 03:02:00;;;;;;;7.65;3.08;;;-1.00;99.90;;;;;;6733318;88;20263;-76
2021/01/15 03:12:02;;;;;;;6.65;2.60;;;-0.70;99.90;;;;;;6729741;88;20214;-76
2021/01/15 03:22:09;;;;;;;6.20;2.80;;;-0.60;99.90;;;;;;6733344;88;21200;-76
2021/01/15 03:32:10;;;;;;;6.72;2.60;;;-0.50;99.90;;;;;;6724791;88;20190;-75
2021/01/15 03:42:11;;;;;;;5.20;2.80;;;-0.40;99.90;;;;;;6725446;88;20625;-76
2021/01/15 03:52:11;;;;;;;7.53;2.55;;;-0.30;99.90;;;;;;6729688;88;20214;-77
2021/01/15 04:02:12;;;;;;;6.70;2.50;;;-0.10;99.90;;;;;;6730175;88;20612;-76
2021/01/15 04:12:13;;;;;;;5.23;2.40;;;0.20;99.90;;;;;;6730031;88;20197;-77
2021/01/15 04:22:13;;;;;;;5.40;2.50;;;0.10;99.90;;;;;;6728014;88;20570;-75
2021/01/15 04:32:14;;;;;;;4.35;2.45;;;0.10;99.90;;;;;;6724798;88;20189;-75
2021/01/15 04:42:16;;;;;;;6.15;2.35;;;0.10;99.90;;;;;;6724167;88;20199;-76
2021/01/15 04:52:17;;;;;;;5.97;2.62;;;0.20;99.90;;;;;;6746493;88;20184;-77
2021/01/15 05:02:19;;;;;;;6.50;2.87;;;0.30;99.90;;;;;;6742145;88;20681;-77
2021/01/15 05:12:20;;;;;;;5.50;2.50;;;0.50;99.90;;;;;;6746083;88;20201;-76
2021/01/15 05:22:20;;;;;;;8.50;2.78;;;0.50;99.90;;;;;;6745696;88;20186;-79
2021/01/15 05:32:29;;;;;;;9.80;3.00;;;0.50;99.90;;;;;;6743095;88;20574;-77
2021/01/15 05:42:30;;;;;;;5.07;2.47;;;0.70;99.90;;;;;;6748768;88;20215;-77
2021/01/15 05:52:30;;;;;;;7.72;3.00;;;0.70;99.90;;;;;;6747796;88;20201;-77
2021/01/15 06:02:31;;;;;;;6.20;2.97;;;0.80;99.90;;;;;;6747387;88;20513;-77
2021/01/15 06:12:41;;;;;;;8.18;2.95;;;0.80;99.90;;;;;;6745109;88;20603;-77
2021/01/15 06:22:44;;;;;;;7.32;3.03;;;0.80;99.90;;;;;;6742799;88;20492;-77
2021/01/15 06:32:47;;;;;;;6.62;2.58;;;0.80;99.90;;;;;;6739601;88;20198;-77
2021/01/15 06:42:48;;;;;;;5.85;3.00;;;1.00;99.90;;;;;;6742998;88;20193;-76
2021/01/15 06:52:50;;;;;;;6.57;2.87;;;0.90;99.90;;;;;;6752087;88;20233;-78
2021/01/15 07:03:18;;;;;;;5.20;2.35;;;0.90;99.90;;;;;;6754372;88;20204;-78
2021/01/15 07:13:28;;;;;;;6.25;2.55;;;0.80;99.90;;;;;;6754682;88;20233;-78
2021/01/15 07:23:54;;;;;;;7.68;3.00;;;0.80;99.90;;;;;;6749444;88;20204;-79
2021/01/15 07:34:02;;;;;;;5.45;2.87;;;1.00;99.90;;;;;;6742257;88;20220;-77
2021/01/15 07:44:22;;;;;;;6.93;2.92;;;1.10;99.90;;;;;;6749210;88;20192;-77
2021/01/15 07:54:49;;;;;;;8.52;2.92;;;1.20;99.90;;;;;;6746264;88;20228;-77
2021/01/15 08:05:02;;;;;;;5.97;2.37;;;1.10;99.90;;;;;;6744984;88;20181;-77
2021/01/15 08:15:03;;;;;;;7.45;3.25;;;1.40;99.90;;;;;;6745931;88;20228;-77
2021/01/15 08:25:04;;;;;;;7.03;3.37;;;1.40;99.90;;;;;;6743522;88;20282;-75
2021/01/15 08:35:05;;;;;;;7.25;3.33;;;1.50;99.90;;;;;;6745136;88;20214;-76
2021/01/15 08:45:07;;;;;;;7.82;3.70;;;1.70;99.90;;;;;;6745382;88;20260;-76
2021/01/15 08:55:10;;;;;;;8.35;3.67;;;1.70;99.90;;;;;;6743785;88;20205;-77
2021/01/15 09:05:14;;;;;;;12.00;4.60;;;1.80;99.90;;;;;;6751722;88;20213;-76
2021/01/15 09:15:25;;;;;;;10.70;4.70;;;1.90;99.90;;;;;;6743080;88;20226;-75
2021/01/15 09:25:26;;;;;;;10.07;5.60;;;1.90;99.90;;;;;;6751017;88;20169;-76
2021/01/15 09:35:27;;;;;;;12.65;6.47;;;2.10;99.90;;;;;;6749109;88;20297;-75
2021/01/15 09:45:27;;;;;;;14.57;7.68;;;2.40;99.90;;;;;;6769824;88;20259;-75
2021/01/15 09:55:28;;;;;;;16.85;8.35;;;2.50;99.90;;;;;;6758372;88;20185;-76
2021/01/15 10:05:28;;;;;;;18.55;8.18;;;2.50;99.90;;;;;;6761170;88;20250;-76
2021/01/15 10:15:29;;;;;;;19.80;8.93;;;2.60;99.90;;;;;;6760588;88;20200;-75
2021/01/15 10:25:29;;;;;;;19.40;8.57;;;2.90;99.90;;;;;;6756860;88;20218;-75
2021/01/15 10:35:30;;;;;;;19.97;10.03;;;3.50;99.90;;;;;;6759741;88;20221;-75
2021/01/15 10:45:30;;;;;;;20.42;9.23;;;4.50;99.90;;;;;;6742641;88;20498;-75
2021/01/15 10:55:31;;;;;;;14.77;7.32;;;4.20;99.90;;;;;;6745538;88;20776;-75
2021/01/15 11:13:32;;;;;;;13.88;6.87;;;3.90;99.90;;;;;;6793542;86;20237;-74
2021/01/15 11:23:33;;;;;;;14.07;6.70;;;3.90;99.90;;;;;;6773080;87;20806;-75
2021/01/15 11:33:33;;;;;;;14.95;7.20;;;3.60;99.90;;;;;;6775872;87;20499;-74
2021/01/15 11:43:35;;;;;;;14.63;6.30;;;3.40;99.90;;;;;;6774035;87;20227;-74
2021/01/15 11:53:37;;;;;;;14.57;7.55;;;3.50;99.90;;;;;;6782813;87;20747;-74
2021/01/15 12:03:37;;;;;;;16.37;7.65;;;3.40;99.90;;;;;;6785547;87;20187;-74
2021/01/15 12:13:38;;;;;;;20.30;7.95;;;3.30;99.90;;;;;;6755293;87;20212;-75
2021/01/15 12:23:39;;;;;;;19.17;7.85;;;3.10;99.90;;;;;;6745743;87;20259;-74
2021/01/15 12:33:39;;;;;;;19.70;8.35;;;3.20;99.90;;;;;;6747665;88;20605;-74
2021/01/15 12:43:40;;;;;;;21.60;8.75;;;3.10;99.90;;;;;;6756967;88;20230;-74
2021/01/15 12:53:40;;;;;;;18.70;8.13;;;3.20;99.90;;;;;;6755474;88;20221;-74
2021/01/15 13:03:41;;;;;;;20.73;9.07;;;3.30;99.90;;;;;;6750739;87;20220;-75
2021/01/15 13:13:41;;;;;;;15.80;7.80;;;4.00;99.90;;;;;;6760933;87;20220;-74
2021/01/15 13:23:42;;;;;;;20.55;9.10;;;3.80;99.90;;;;;;6758081;87;20332;-75
2021/01/15 13:33:43;;;;;;;17.42;8.27;;;3.70;99.90;;;;;;6773358;87;20775;-75
2021/01/15 13:43:44;;;;;;;20.05;8.85;;;3.50;99.90;;;;;;6764866;87;20202;-74
2021/01/15 13:53:44;;;;;;;17.80;8.43;;;3.60;99.90;;;;;;6767437;87;20261;-75
2021/01/15 14:03:45;;;;;;;20.08;9.95;;;3.50;99.90;;;;;;6766013;87;20191;-75
2021/01/15 14:13:46;;;;;;;22.17;9.60;;;3.50;99.90;;;;;;6764693;87;20235;-74
2021/01/15 14:23:46;;;;;;;21.37;9.45;;;3.40;99.90;;;;;;6759245;87;20233;-74
2021/01/15 14:33:47;;;;;;;21.15;9.13;;;3.30;99.90;;;;;;6764780;87;20270;-74
2021/01/15 14:43:47;;;;;;;21.08;9.57;;;3.20;99.90;;;;;;6765260;87;20199;-76
2021/01/15 14:53:48;;;;;;;22.98;10.50;;;3.10;99.90;;;;;;6766181;87;20218;-75
2021/01/15 15:03:48;;;;;;;21.08;10.43;;;2.80;99.90;;;;;;6773366;87;20206;-75
2021/01/15 15:13:49;;;;;;;18.90;8.57;;;2.80;99.90;;;;;;6743163;88;20220;-74
2021/01/15 15:23:50;;;;;;;11.48;5.20;;;2.80;99.90;;;;;;6744335;88;21030;-78
2021/01/15 15:33:51;;;;;;;9.35;4.30;;;2.70;99.90;;;;;;6740028;88;20244;-77
2021/01/15 15:43:51;;;;;;;8.75;4.57;;;2.70;99.90;;;;;;6739248;88;20225;-76
2021/01/15 15:53:52;;;;;;;13.25;5.00;;;2.70;99.90;;;;;;6741398;88;20406;-75
2021/01/15 16:03:52;;;;;;;13.25;5.62;;;2.50;99.90;;;;;;6744149;88;20523;-75
2021/01/15 16:13:53;;;;;;;11.85;5.68;;;2.40;99.90;;;;;;6759900;88;20308;-73
2021/01/15 16:23:55;;;;;;;11.38;4.95;;;2.30;99.90;;;;;;6776102;87;20196;-76
2021/01/15 16:33:55;;;;;;;12.55;6.15;;;2.30;99.90;;;;;;6771110;87;20184;-73
2021/01/15 16:43:56;;;;;;;16.45;7.35;;;2.10;99.90;;;;;;6760562;87;20202;-74
2021/01/15 16:53:56;;;;;;;16.45;7.70;;;2.00;99.90;;;;;;6760783;87;20263;-75
2021/01/15 17:03:57;;;;;;;17.27;7.50;;;2.10;99.90;;;;;;6762772;87;20215;-74
2021/01/15 17:13:57;;;;;;;21.52;8.50;;;2.00;99.90;;;;;;6765089;87;20604;-74
2021/01/15 17:23:58;;;;;;;20.00;9.05;;;2.00;99.90;;;;;;6764188;87;20173;-75
2021/01/15 17:33:59;;;;;;;18.52;8.65;;;1.80;99.90;;;;;;6757662;87;20187;-76
2021/01/15 17:43:59;;;;;;;20.37;8.77;;;1.80;99.90;;;;;;6762031;87;20202;-75
2021/01/15 17:54:00;;;;;;;18.60;8.52;;;1.70;99.90;;;;;;6760298;87;20211;-75
2021/01/15 18:04:01;;;;;;;18.95;9.02;;;1.70;99.90;;;;;;6754228;87;20352;-74
2021/01/15 18:14:03;;;;;;;20.27;9.23;;;1.70;99.90;;;;;;6739853;88;20299;-76
2021/01/15 18:24:04;;;;;;;20.70;8.93;;;1.60;99.90;;;;;;6743972;88;20202;-75
2021/01/15 18:34:05;;;;;;;18.95;8.55;;;1.60;99.90;;;;;;6742664;88;20181;-77
2021/01/15 18:44:06;;;;;;;21.87;8.98;;;1.60;99.90;;;;;;6748489;88;20601;-75
2021/01/15 18:54:08;;;;;;;18.12;9.05;;;1.60;99.90;;;;;;6744346;88;20193;-75
2021/01/15 19:04:12;;;;;;;19.77;9.00;;;1.50;99.90;;;;;;6742920;88;20210;-76
2021/01/15 19:14:13;;;;;;;17.83;9.18;;;1.50;99.90;;;;;;6762357;87;20212;-75
2021/01/15 19:24:13;;;;;;;21.05;9.15;;;1.60;99.90;;;;;;6759324;87;20563;-74
2021/01/15 19:34:14;;;;;;;21.23;9.88;;;1.70;99.90;;;;;;6763019;87;21048;-74
2021/01/15 19:44:15;;;;;;;20.67;9.15;;;1.60;99.90;;;;;;6767955;87;20232;-74
2021/01/15 19:54:16;;;;;;;21.30;9.60;;;1.70;99.90;;;;;;6764982;87;20221;-75
2021/01/15 20:04:16;;;;;;;16.58;8.57;;;1.70;99.90;;;;;;6762962;87;20419;-74
2021/01/15 20:14:17;;;;;;;16.12;8.02;;;1.70;99.90;;;;;;6771890;87;20192;-74
2021/01/15 20:24:17;;;;;;;15.43;7.85;;;1.60;99.90;;;;;;6762734;87;20213;-75
2021/01/15 20:34:18;;;;;;;14.38;7.07;;;1.60;99.90;;;;;;6774246;87;20676;-75
2021/01/15 20:44:18;;;;;;;13.52;6.55;;;1.60;99.90;;;;;;6760814;87;20226;-74
2021/01/15 20:54:19;;;;;;;10.82;5.65;;;1.70;99.90;;;;;;6761530;87;20195;-75
2021/01/15 21:04:19;;;;;;;12.10;5.12;;;1.60;99.90;;;;;;6764627;87;20203;-77
2021/01/15 21:14:20;;;;;;;10.05;4.70;;;1.50;99.90;;;;;;6768015;87;20218;-78
2021/01/15 21:24:23;;;;;;;9.48;4.37;;;1.30;99.90;;;;;;6764901;87;20253;-78
2021/01/15 21:34:23;;;;;;;10.10;5.30;;;1.50;99.90;;;;;;6771320;87;21058;-78
2021/01/15 21:44:24;;;;;;;9.68;4.80;;;1.50;99.90;;;;;;6764690;87;20230;-77
2021/01/15 21:54:24;;;;;;;10.07;5.12;;;1.50;99.90;;;;;;6765994;87;20500;-77
2021/01/15 22:04:25;;;;;;;10.52;4.12;;;1.40;99.90;;;;;;6761314;87;20204;-76
2021/01/15 22:14:25;;;;;;;10.23;4.45;;;1.40;99.90;;;;;;6766516;87;20183;-76
2021/01/15 22:24:26;;;;;;;10.23;4.57;;;1.30;99.90;;;;;;6761678;87;20638;-76
2021/01/15 22:34:26;;;;;;;10.48;4.93;;;1.30;99.90;;;;;;6766870;87;20955;-77
2021/01/15 22:44:27;;;;;;;13.35;4.95;;;1.20;99.90;;;;;;6768158;87;20213;-77
2021/01/15 22:54:28;;;;;;;11.27;5.15;;;1.20;99.90;;;;;;6769028;87;20577;-77
2021/01/15 23:04:28;;;;;;;13.50;5.43;;;1.10;99.90;;;;;;6765006;87;20327;-77
2021/01/15 23:14:29;;;;;;;12.52;5.68;;;1.20;99.90;;;;;;6765774;87;20507;-77
2021/01/15 23:24:34;;;;;;;10.25;5.30;;;1.20;99.90;;;;;;6767448;87;20207;-77
2021/01/15 23:34:35;;;;;;;12.30;5.35;;;1.20;99.90;;;;;;6762777;87;20563;-76
2021/01/15 23:44:35;;;;;;;11.98;5.53;;;1.20;99.90;;;;;;6772713;87;20200;-75
2021/01/15 23:54:36;;;;;;;12.40;5.60;;;1.00;99.90;;;;;;6763380;87;20183;-75
